createdAt,value
2019-04-07T00:01:58.330Z,1.10
2019-04-07T00:04:27.239Z,1.00
2019-04-07T00:06:56.058Z,1.00
2019-04-07T00:09:24.808Z,1.20
2019-04-07T00:11:53.619Z,1.10
2019-04-07T00:14:22.319Z,1.00
2019-04-07T00:16:50.921Z,1.10
2019-04-07T00:19:19.494Z,1.10
2019-04-07T00:21:48.091Z,1.10
2019-04-07T00:24:16.740Z,1.10
2019-04-07T00:26:45.328Z,1.03
2019-04-07T00:29:14.429Z,1.17
2019-04-07T00:31:43.164Z,1.30
2019-04-07T00:34:11.967Z,1.10
2019-04-07T00:36:40.605Z,1.10
2019-04-07T00:39:09.472Z,1.10
2019-04-07T00:41:38.731Z,1.20
2019-04-07T00:44:07.507Z,1.00
2019-04-07T00:46:36.536Z,0.90
2019-04-07T00:49:05.760Z,1.20
2019-04-07T00:51:34.362Z,1.10
2019-04-07T00:54:02.934Z,1.20
2019-04-07T00:56:31.544Z,1.20
2019-04-07T00:59:00.181Z,1.07
2019-04-07T01:01:28.784Z,0.90
2019-04-07T01:03:57.715Z,1.10
2019-04-07T01:06:26.989Z,1.10
2019-04-07T01:08:55.548Z,0.90
2019-04-07T01:11:24.290Z,0.97
2019-04-07T01:13:52.980Z,1.10
2019-04-07T01:16:21.966Z,1.00
2019-04-07T01:18:50.550Z,1.00
2019-04-07T01:21:19.232Z,1.00
2019-04-07T01:23:47.904Z,1.00
2019-04-07T01:26:16.589Z,1.00
2019-04-07T01:28:45.626Z,1.00
2019-04-07T01:31:14.379Z,1.10
2019-04-07T01:33:43.170Z,1.00
2019-04-07T01:36:11.771Z,1.00
2019-04-07T01:38:40.325Z,0.80
2019-04-07T01:41:40.738Z,1.10
2019-04-07T01:44:36.471Z,1.10
2019-04-07T01:47:24.283Z,1.00
2019-04-07T01:50:10.976Z,1.00
2019-04-07T01:53:03.503Z,1.20
2019-04-07T01:55:51.208Z,1.00
2019-04-07T01:58:33.967Z,1.00
2019-04-07T02:01:29.656Z,1.00
2019-04-07T02:04:09.758Z,1.10
2019-04-07T02:06:51.723Z,1.30
2019-04-07T02:09:31.634Z,1.20
2019-04-07T02:12:14.624Z,1.00
2019-04-07T02:15:02.507Z,1.00
2019-04-07T02:17:50.644Z,1.50
2019-04-07T02:20:51.653Z,1.10
2019-04-07T02:23:30.567Z,1.20
2019-04-07T02:26:18.914Z,1.50
2019-04-07T02:29:05.947Z,1.10
2019-04-07T02:31:43.039Z,1.10
2019-04-07T02:34:17.733Z,1.10
2019-04-07T02:37:20.676Z,1.00
2019-04-07T02:40:03.256Z,0.93
2019-04-07T02:42:42.573Z,0.90
2019-04-07T02:45:30.397Z,1.10
2019-04-07T02:48:24.177Z,1.10
2019-04-07T02:51:11.892Z,1.07
2019-04-07T02:53:51.009Z,1.10
2019-04-07T02:56:29.310Z,1.10
2019-04-07T02:59:13.024Z,1.07
2019-04-07T03:01:52.089Z,1.00
2019-04-07T03:04:48.656Z,1.00
2019-04-07T03:07:44.553Z,1.00
2019-04-07T03:10:29.015Z,1.00
2019-04-07T03:13:15.432Z,1.10
2019-04-07T03:16:15.771Z,1.10
2019-04-07T03:19:00.112Z,1.10
2019-04-07T03:21:38.279Z,1.10
2019-04-07T03:24:22.393Z,1.07
2019-04-07T03:27:01.637Z,1.10
2019-04-07T03:29:53.362Z,1.00
2019-04-07T03:32:45.108Z,1.10
2019-04-07T03:35:17.282Z,1.20
2019-04-07T03:37:59.682Z,1.20
2019-04-07T03:40:44.134Z,1.10
2019-04-07T03:43:30.897Z,1.00
2019-04-07T03:46:18.505Z,1.20
2019-04-07T03:48:58.869Z,1.13
2019-04-07T03:51:40.874Z,1.10
2019-04-07T03:54:18.347Z,1.03
2019-04-07T03:57:05.072Z,1.10
2019-04-07T04:00:04.630Z,1.10
2019-04-07T04:02:55.115Z,1.00
2019-04-07T04:05:55.198Z,1.03
2019-04-07T04:08:48.997Z,1.10
2019-04-07T04:11:27.435Z,1.13
2019-04-07T04:14:18.357Z,1.00
2019-04-07T04:16:50.774Z,1.10
2019-04-07T04:19:20.701Z,1.10
2019-04-07T04:21:49.532Z,1.00
2019-04-07T04:24:18.512Z,1.00
2019-04-07T04:26:47.621Z,1.10
2019-04-07T04:29:17.042Z,1.10
2019-04-07T04:31:45.923Z,1.00
2019-04-07T04:34:15.129Z,1.10
2019-04-07T04:36:44.656Z,1.10
2019-04-07T04:39:18.172Z,1.10
2019-04-07T04:41:44.714Z,1.10
2019-04-07T04:44:14.280Z,1.00
2019-04-07T04:46:43.060Z,1.20
2019-04-07T04:49:11.881Z,1.03
2019-04-07T04:51:41.008Z,1.10
2019-04-07T04:54:10.951Z,1.10
2019-04-07T04:56:39.690Z,1.00
2019-04-07T04:59:08.243Z,1.10
2019-04-07T05:01:37.767Z,1.10
2019-04-07T05:04:07.364Z,1.10
2019-04-07T05:06:36.902Z,1.10
2019-04-07T05:09:06.890Z,1.00
2019-04-07T05:11:35.912Z,1.10
2019-04-07T05:14:04.919Z,1.10
2019-04-07T05:16:33.551Z,1.20
2019-04-07T05:19:02.715Z,1.00
2019-04-07T05:21:31.520Z,1.10
2019-04-07T05:24:00.301Z,1.00
2019-04-07T05:26:29.193Z,1.10
2019-04-07T05:28:58.276Z,1.10
2019-04-07T05:31:26.986Z,0.97
2019-04-07T05:33:55.530Z,1.00
2019-04-07T05:36:25.172Z,1.00
2019-04-07T05:38:54.127Z,1.10
2019-04-07T05:41:23.412Z,1.10
2019-04-07T05:43:52.496Z,1.03
2019-04-07T05:46:21.302Z,1.03
2019-04-07T05:48:51.032Z,1.10
2019-04-07T05:51:20.883Z,0.93
2019-04-07T05:53:49.566Z,1.07
2019-04-07T05:56:18.551Z,1.10
2019-04-07T05:58:47.282Z,1.10
2019-04-07T06:01:17.061Z,0.90
2019-04-07T06:03:46.700Z,1.10
2019-04-07T06:06:15.845Z,1.00
2019-04-07T06:08:47.043Z,1.10
2019-04-07T06:11:14.877Z,1.07
2019-04-07T06:13:44.619Z,1.10
2019-04-07T06:16:33.368Z,0.90
2019-04-07T06:19:07.708Z,1.10
2019-04-07T06:21:34.100Z,1.00
2019-04-07T06:24:02.670Z,1.10
2019-04-07T06:26:31.346Z,1.10
2019-04-07T06:28:59.965Z,0.90
2019-04-07T06:31:31.320Z,1.00
2019-04-07T06:33:58.953Z,1.00
2019-04-07T06:36:27.599Z,1.00
2019-04-07T06:38:56.271Z,0.90
2019-04-07T06:41:30.101Z,1.10
2019-04-07T06:44:08.233Z,0.90
2019-04-07T06:46:34.520Z,1.00
2019-04-07T06:49:12.969Z,0.93
2019-04-07T06:51:55.474Z,1.10
2019-04-07T06:54:47.028Z,1.10
2019-04-07T06:57:52.951Z,0.90
2019-04-07T07:00:39.732Z,1.00
2019-04-07T07:03:39.422Z,0.90
2019-04-07T07:06:25.425Z,1.00
2019-04-07T07:09:13.784Z,1.00
2019-04-07T07:12:04.187Z,0.97
2019-04-07T07:14:45.828Z,0.97
2019-04-07T07:17:31.219Z,1.00
2019-04-07T07:20:12.635Z,0.90
2019-04-07T07:22:48.695Z,0.90
2019-04-07T07:25:18.161Z,1.00
2019-04-07T07:27:47.725Z,0.90
2019-04-07T07:30:18.330Z,0.90
2019-04-07T07:32:47.373Z,1.00
2019-04-07T07:35:16.433Z,0.90
2019-04-07T07:37:45.522Z,1.00
2019-04-07T07:40:16.077Z,0.90
2019-04-07T07:42:44.445Z,0.90
2019-04-07T07:45:14.002Z,1.00
2019-04-07T07:47:42.718Z,1.00
2019-04-07T07:50:12.073Z,1.00
2019-04-07T07:52:40.843Z,0.90
2019-04-07T07:55:09.894Z,1.00
2019-04-07T07:57:38.605Z,1.00
2019-04-07T08:00:07.327Z,0.90
2019-04-07T08:02:36.531Z,0.90
2019-04-07T08:05:05.313Z,0.90
2019-04-07T08:07:34.747Z,1.00
2019-04-07T08:10:03.490Z,0.80
2019-04-07T08:12:34.302Z,0.87
2019-04-07T08:15:03.042Z,1.00
2019-04-07T08:17:33.850Z,1.00
2019-04-07T08:20:02.415Z,0.90
2019-04-07T08:22:38.875Z,0.80
2019-04-07T08:25:02.432Z,0.90
2019-04-07T08:27:32.085Z,0.80
2019-04-07T08:30:01.671Z,0.80
2019-04-07T08:32:32.290Z,0.60
2019-04-07T08:35:03.879Z,0.87
2019-04-07T08:37:31.195Z,0.80
2019-04-07T08:40:04.259Z,0.73
2019-04-07T08:42:30.360Z,0.70
2019-04-07T08:45:00.563Z,0.80
2019-04-07T08:47:30.119Z,0.90
2019-04-07T08:49:59.745Z,0.70
2019-04-07T08:52:29.343Z,0.90
2019-04-07T08:55:20.072Z,0.70
2019-04-07T08:57:47.461Z,0.80
2019-04-07T09:00:22.064Z,0.83
2019-04-07T09:03:01.585Z,0.80
2019-04-07T09:05:26.841Z,0.70
2019-04-07T09:07:52.818Z,0.80
2019-04-07T09:10:33.070Z,0.77
2019-04-07T09:13:02.972Z,0.80
2019-04-07T09:15:59.035Z,0.80
2019-04-07T09:18:54.989Z,0.60
2019-04-07T09:21:54.336Z,0.70
2019-04-07T09:24:40.586Z,0.60
2019-04-07T09:27:19.424Z,0.60
2019-04-07T09:30:08.723Z,0.77
2019-04-07T09:32:58.796Z,0.73
2019-04-07T09:35:30.953Z,0.80
2019-04-07T09:38:11.551Z,0.80
2019-04-07T09:41:00.495Z,0.70
2019-04-07T09:43:49.550Z,0.67
2019-04-07T09:46:54.132Z,0.70
2019-04-07T09:49:49.173Z,0.67
2019-04-07T09:52:30.759Z,0.60
2019-04-07T09:55:30.803Z,0.70
2019-04-07T09:58:09.225Z,0.70
2019-04-07T10:00:55.547Z,0.60
2019-04-07T10:04:02.336Z,0.70
2019-04-07T10:06:53.214Z,0.70
2019-04-07T10:09:30.920Z,0.60
2019-04-07T10:12:34.602Z,0.60
2019-04-07T10:15:22.776Z,0.60
2019-04-07T10:18:04.205Z,0.63
2019-04-07T10:21:12.646Z,0.50
2019-04-07T10:24:05.200Z,0.70
2019-04-07T10:26:53.558Z,0.60
2019-04-07T10:29:30.760Z,0.60
2019-04-07T10:32:09.651Z,0.60
2019-04-07T10:34:46.524Z,0.60
2019-04-07T10:37:34.456Z,0.60
2019-04-07T10:40:34.673Z,0.57
2019-04-07T10:43:25.117Z,0.60
2019-04-07T10:46:06.750Z,0.50
2019-04-07T10:48:54.691Z,0.60
2019-04-07T10:51:40.926Z,0.70
2019-04-07T10:54:32.480Z,0.60
2019-04-07T10:57:20.523Z,0.50
2019-04-07T11:00:07.794Z,0.50
2019-04-07T11:02:55.460Z,0.50
2019-04-07T11:05:39.398Z,0.40
2019-04-07T11:08:23.320Z,0.60
2019-04-07T11:11:17.010Z,0.50
2019-04-07T11:13:55.476Z,0.40
2019-04-07T11:16:42.090Z,0.50
2019-04-07T11:19:28.790Z,0.50
2019-04-07T11:22:28.597Z,0.50
2019-04-07T11:25:07.853Z,0.60
2019-04-07T11:27:59.422Z,0.50
2019-04-07T11:30:57.264Z,0.40
2019-04-07T11:33:44.811Z,0.50
2019-04-07T11:36:42.055Z,0.50
2019-04-07T11:39:28.991Z,0.43
2019-04-07T11:42:05.712Z,0.40
2019-04-07T11:44:59.951Z,0.40
2019-04-07T11:47:53.520Z,0.60
2019-04-07T11:50:29.934Z,0.40
2019-04-07T11:53:07.430Z,0.47
2019-04-07T11:55:45.436Z,0.40
2019-04-07T11:58:30.901Z,0.40
2019-04-07T12:01:02.498Z,0.40
2019-04-07T12:03:52.600Z,0.50
2019-04-07T12:06:33.185Z,0.30
2019-04-07T12:09:36.259Z,0.40
2019-04-07T12:12:27.450Z,0.40
2019-04-07T12:15:14.222Z,0.30
2019-04-07T12:17:50.230Z,0.40
2019-04-07T12:20:40.757Z,0.40
2019-04-07T12:23:31.549Z,0.40
2019-04-07T12:26:12.870Z,0.40
2019-04-07T12:28:53.752Z,0.40
2019-04-07T12:31:51.375Z,0.40
2019-04-07T12:34:49.751Z,0.40
2019-04-07T12:37:58.367Z,0.40
2019-04-07T12:40:39.750Z,0.37
2019-04-07T12:43:26.064Z,0.40
2019-04-07T12:46:22.769Z,0.40
2019-04-07T12:49:09.667Z,0.40
2019-04-07T12:51:47.191Z,0.30
2019-04-07T12:54:27.746Z,0.30
2019-04-07T12:57:09.387Z,0.40
2019-04-07T13:00:07.043Z,0.30
2019-04-07T13:03:00.535Z,0.30
2019-04-07T13:05:48.748Z,0.40
2019-04-07T13:08:35.719Z,0.30
2019-04-07T13:11:13.290Z,0.30
2019-04-07T13:14:01.633Z,0.40
2019-04-07T13:16:44.334Z,0.40
2019-04-07T13:19:32.139Z,0.30
2019-04-07T13:22:16.354Z,0.40
2019-04-07T13:25:07.910Z,0.40
2019-04-07T13:27:53.111Z,0.40
2019-04-07T13:30:53.036Z,0.30
2019-04-07T13:33:37.164Z,0.40
2019-04-07T13:36:19.095Z,0.30
2019-04-07T13:38:58.843Z,0.40
2019-04-07T13:41:45.767Z,0.30
2019-04-07T13:44:19.719Z,0.30
2019-04-07T13:47:07.262Z,0.30
2019-04-07T13:50:00.684Z,0.30
2019-04-07T13:52:40.708Z,0.30
2019-04-07T13:55:35.064Z,0.30
2019-04-07T13:58:17.193Z,0.33
2019-04-07T14:01:05.027Z,0.30
2019-04-07T14:03:58.027Z,0.30
2019-04-07T14:06:47.990Z,0.30
2019-04-07T14:09:37.445Z,0.30
2019-04-07T14:12:19.223Z,0.30
2019-04-07T14:15:19.377Z,0.30
2019-04-07T14:18:13.542Z,0.30
2019-04-07T14:21:06.535Z,0.30
2019-04-07T14:24:12.199Z,0.20
2019-04-07T14:26:59.871Z,0.30
2019-04-07T14:29:53.242Z,0.30
2019-04-07T14:32:50.695Z,0.30
2019-04-07T14:35:38.950Z,0.30
2019-04-07T14:38:39.926Z,0.40
2019-04-07T14:41:17.341Z,0.20
2019-04-07T14:44:12.832Z,0.20
2019-04-07T14:46:59.000Z,0.20
2019-04-07T14:50:05.161Z,0.23
2019-04-07T14:52:44.670Z,0.20
2019-04-07T14:55:43.153Z,0.20
2019-04-07T14:58:35.815Z,0.20
2019-04-07T15:01:22.508Z,0.20
2019-04-07T15:03:51.252Z,0.20
2019-04-07T15:06:19.884Z,0.20
2019-04-07T15:09:08.250Z,0.20
2019-04-07T15:12:08.941Z,0.20
2019-04-07T15:14:33.818Z,0.30
2019-04-07T15:17:03.508Z,0.20
2019-04-07T15:19:33.248Z,0.20
2019-04-07T15:22:04.284Z,0.20
2019-04-07T15:24:37.320Z,0.20
2019-04-07T15:27:06.742Z,0.20
2019-04-07T15:29:39.452Z,0.20
2019-04-07T15:32:07.259Z,0.20
2019-04-07T15:34:39.570Z,0.20
2019-04-07T15:37:06.772Z,0.20
2019-04-07T15:39:37.461Z,0.20
2019-04-07T15:42:09.037Z,0.20
2019-04-07T15:44:39.705Z,0.20
2019-04-07T15:47:07.920Z,0.20
2019-04-07T15:49:36.558Z,0.20
2019-04-07T15:52:08.232Z,0.20
2019-04-07T15:54:36.029Z,0.20
2019-04-07T15:57:05.612Z,0.20
2019-04-07T15:59:35.313Z,0.20
2019-04-07T16:02:08.488Z,0.20
2019-04-07T16:04:35.090Z,0.20
2019-04-07T16:07:03.806Z,0.30
2019-04-07T16:09:40.334Z,0.40
2019-04-07T16:12:03.710Z,0.30
2019-04-07T16:14:32.662Z,0.30
2019-04-07T16:17:04.293Z,0.30
2019-04-07T16:19:40.082Z,0.30
2019-04-07T16:22:01.871Z,0.23
2019-04-07T16:24:31.146Z,0.30
2019-04-07T16:27:03.961Z,0.30
2019-04-07T16:29:30.134Z,0.30
2019-04-07T16:31:59.029Z,0.30
2019-04-07T16:34:28.650Z,0.30
2019-04-07T16:37:00.033Z,0.20
2019-04-07T16:39:29.157Z,0.30
2019-04-07T16:41:58.029Z,0.20
2019-04-07T16:44:26.631Z,0.30
2019-04-07T16:46:57.757Z,0.30
2019-04-07T16:49:25.727Z,0.30
2019-04-07T16:51:54.391Z,0.30
2019-04-07T16:54:23.375Z,0.40
2019-04-07T16:56:55.815Z,0.30
2019-04-07T16:59:22.438Z,0.30
2019-04-07T17:01:50.998Z,0.30
2019-04-07T17:04:20.139Z,0.30
2019-04-07T17:06:59.484Z,0.30
2019-04-07T17:09:22.410Z,0.30
2019-04-07T17:11:50.384Z,0.23
2019-04-07T17:14:19.147Z,0.30
2019-04-07T17:16:48.430Z,0.30
2019-04-07T17:19:17.176Z,0.20
2019-04-07T17:21:45.761Z,0.30
2019-04-07T17:24:14.518Z,0.30
2019-04-07T17:26:43.564Z,0.30
2019-04-07T17:29:12.312Z,0.30
2019-04-07T17:31:41.436Z,0.30
2019-04-07T17:34:11.741Z,0.30
2019-04-07T17:36:40.870Z,0.30
2019-04-07T17:39:38.536Z,0.30
2019-04-07T17:42:12.133Z,0.30
2019-04-07T17:45:05.932Z,0.30
2019-04-07T17:48:12.805Z,0.37
2019-04-07T17:51:06.322Z,0.40
2019-04-07T17:53:45.358Z,0.40
2019-04-07T17:56:43.227Z,0.40
2019-04-07T17:59:22.802Z,0.40
2019-04-07T18:02:12.067Z,0.50
2019-04-07T18:04:59.112Z,0.40
2019-04-07T18:07:47.716Z,0.40
2019-04-07T18:10:39.203Z,0.40
2019-04-07T18:13:41.980Z,0.40
2019-04-07T18:16:31.810Z,0.40
2019-04-07T18:19:28.853Z,0.50
2019-04-07T18:22:13.688Z,0.40
2019-04-07T18:25:05.213Z,0.30
2019-04-07T18:27:44.973Z,0.40
2019-04-07T18:30:32.256Z,0.33
2019-04-07T18:33:22.800Z,0.40
2019-04-07T18:36:09.079Z,0.40
2019-04-07T18:38:56.039Z,0.40
2019-04-07T18:41:39.408Z,0.40
2019-04-07T18:44:32.767Z,0.40
2019-04-07T18:47:23.348Z,0.43
2019-04-07T18:50:10.654Z,0.40
2019-04-07T18:52:58.446Z,0.40
2019-04-07T18:55:45.275Z,0.40
2019-04-07T18:58:52.625Z,0.40
2019-04-07T19:01:43.504Z,0.40
2019-04-07T19:04:30.470Z,0.40
2019-04-07T19:07:07.687Z,0.40
2019-04-07T19:10:05.023Z,0.50
2019-04-07T19:12:43.182Z,0.40
2019-04-07T19:15:29.838Z,0.40
2019-04-07T19:18:16.540Z,0.40
2019-04-07T19:21:20.355Z,0.50
2019-04-07T19:24:10.705Z,0.40
2019-04-07T19:27:15.052Z,0.40
2019-04-07T19:29:57.451Z,0.40
2019-04-07T19:32:56.252Z,0.40
2019-04-07T19:36:05.961Z,0.50
2019-04-07T19:38:45.372Z,0.40
2019-04-07T19:41:32.502Z,0.40
2019-04-07T19:44:42.890Z,0.50
2019-04-07T19:47:34.370Z,0.50
2019-04-07T19:50:21.466Z,0.40
2019-04-07T19:53:11.302Z,0.50
2019-04-07T19:55:55.566Z,0.40
2019-04-07T19:58:37.314Z,0.40
2019-04-07T20:01:14.899Z,0.40
2019-04-07T20:03:54.738Z,0.50
2019-04-07T20:06:41.835Z,0.50
2019-04-07T20:09:39.390Z,0.40
2019-04-07T20:12:12.822Z,0.50
2019-04-07T20:15:06.605Z,0.40
2019-04-07T20:17:41.220Z,0.50
2019-04-07T20:20:33.633Z,0.50
2019-04-07T20:23:19.988Z,0.70
2019-04-07T20:25:57.392Z,0.60
2019-04-07T20:28:41.047Z,0.57
2019-04-07T20:31:23.859Z,0.60
2019-04-07T20:34:15.135Z,0.50
2019-04-07T20:37:02.801Z,0.60
2019-04-07T20:39:36.718Z,0.70
2019-04-07T20:42:15.891Z,0.50
2019-04-07T20:45:02.469Z,0.63
2019-04-07T20:47:45.188Z,0.67
2019-04-07T20:50:33.508Z,0.60
2019-04-07T20:53:29.701Z,0.53
2019-04-07T20:56:15.414Z,0.70
2019-04-07T20:59:04.801Z,0.60
2019-04-07T21:02:01.545Z,0.60
2019-04-07T21:04:39.572Z,0.50
2019-04-07T21:07:33.443Z,0.50
2019-04-07T21:10:21.272Z,0.60
2019-04-07T21:13:19.307Z,0.70
2019-04-07T21:15:55.353Z,0.70
2019-04-07T21:18:43.074Z,0.50
2019-04-07T21:21:39.581Z,0.60
2019-04-07T21:24:27.150Z,0.70
2019-04-07T21:27:02.624Z,0.70
2019-04-07T21:29:59.173Z,0.70
2019-04-07T21:32:38.782Z,0.80
2019-04-07T21:35:25.774Z,0.60
2019-04-07T21:38:08.647Z,0.77
2019-04-07T21:40:45.775Z,0.70
2019-04-07T21:43:34.007Z,0.80
2019-04-07T21:46:20.267Z,0.70
2019-04-07T21:49:05.568Z,0.70
2019-04-07T21:51:50.329Z,0.80
2019-04-07T21:54:40.897Z,0.90
2019-04-07T21:57:27.499Z,0.90
2019-04-07T22:00:14.622Z,0.90
2019-04-07T22:03:16.704Z,0.87
2019-04-07T22:05:57.907Z,0.87
2019-04-07T22:08:30.568Z,0.90
2019-04-07T22:10:59.416Z,0.70
2019-04-07T22:13:28.700Z,0.90
2019-04-07T22:16:00.582Z,0.80
2019-04-07T22:18:27.812Z,0.83
2019-04-07T22:20:57.050Z,0.90
2019-04-07T22:23:29.610Z,0.90
2019-04-07T22:25:57.088Z,0.93
2019-04-07T22:28:28.540Z,0.90
2019-04-07T22:30:57.272Z,0.80
2019-04-07T22:33:29.712Z,0.87
2019-04-07T22:35:56.261Z,0.80
2019-04-07T22:38:25.333Z,0.90
2019-04-07T22:40:54.322Z,0.80
2019-04-07T22:43:24.803Z,0.83
2019-04-07T22:46:04.199Z,0.93
2019-04-07T22:48:26.734Z,0.90
2019-04-07T22:50:54.130Z,0.70
2019-04-07T22:53:27.303Z,0.90
2019-04-07T22:55:52.981Z,0.87
2019-04-07T22:58:22.206Z,0.80
2019-04-07T23:00:50.895Z,0.90
2019-04-07T23:03:19.752Z,0.80
2019-04-07T23:05:49.166Z,0.90
2019-04-07T23:08:18.752Z,0.80
2019-04-07T23:10:47.917Z,0.90
2019-04-07T23:13:16.617Z,0.87
2019-04-07T23:15:47.031Z,0.80
2019-04-07T23:18:15.935Z,0.90
2019-04-07T23:20:44.664Z,0.90
2019-04-07T23:23:13.247Z,0.83
2019-04-07T23:25:42.092Z,0.90
2019-04-07T23:28:10.766Z,1.00
2019-04-07T23:30:39.711Z,0.80
2019-04-07T23:33:08.458Z,0.90
2019-04-07T23:35:37.127Z,0.97
2019-04-07T23:38:05.853Z,0.90
2019-04-07T23:40:34.526Z,0.83
2019-04-07T23:43:03.139Z,1.30
2019-04-07T23:45:31.710Z,0.90
2019-04-07T23:48:00.254Z,0.80
2019-04-07T23:50:29.435Z,0.90
2019-04-07T23:53:00.446Z,1.00
2019-04-07T23:55:29.497Z,1.00
2019-04-07T23:57:58.148Z,1.50
